Atmospheric History
06/21/2018 03:12  to  6/22/2018 03:12
Change End Date:
To complete the export process:
1) Select all of the data below
2) Copy the data to the clipboard
3) Open a word processor such as Notepad
4) Paste the data into the word processor
5) Save the file

Date/Time (MST), AirTemp, RH, Dewpoint ,AvgWindSpeed, GustWindSpeed, WindDirection, PrecipType, PrecipIntensity, PrecipAccumulation, PrecipRate ,Visibility
06/22/2018 03:09, , ,   ,8, 12, W, None, None, 0, 0 ,6560
06/22/2018 03:00, , ,   ,9, 12, W, None, None, 0, 0 ,6560
06/22/2018 02:59, , ,   ,9, 12, W, None, None, 0, 0 ,6560
06/22/2018 02:49, , ,   ,9, 11, W, None, None, 0, 0 ,6560
06/22/2018 02:39, , ,   ,8, 11, W, None, None, 0, 0 ,6560
06/22/2018 02:30, , ,   ,7, 11, W, None, None, 0, 0 ,6560
06/22/2018 02:29, , ,   ,8, 12, W, None, None, 0, 0 ,6560
06/22/2018 02:19, , ,   ,11, 15, SW, None, None, 0, 0 ,6560
06/22/2018 02:08, , ,   ,12, 17, SW, None, None, 0, 0 ,6560
06/22/2018 02:00, , ,   ,12, 16, SW, None, None, 0, 0 ,6560
06/22/2018 01:58, , ,   ,12, 16, SW, None, None, 0, 0 ,6560
06/22/2018 01:48, , ,   ,13, 17, SW, None, None, 0, 0 ,6560
06/22/2018 01:38, , ,   ,14, 19, SW, None, None, 0, 0 ,6560
06/22/2018 01:30, , ,   ,14, 19, SW, None, None, 0, 0 ,6560
06/22/2018 01:28, , ,   ,13, 17, SW, None, None, 0, 0 ,6560
06/22/2018 01:18, , ,   ,12, 17, SW, None, None, 0, 0 ,6560
06/22/2018 01:08, 65, 58, 17 ,12, 17, SW, None, None, 0, 0 ,6560
06/22/2018 01:00, 65, 61, 17 ,14, 19, SW, None, None, 0, 0 ,6560
06/22/2018 00:58, 65, 61, 17 ,14, 19, SW, None, None, 0, 0 ,6560
06/22/2018 00:48, 65, 60, 17 ,14, 18, SW, None, None, 0, 0 ,6560
06/22/2018 00:38, 64, 61, 17 ,10, 12, W, None, None, 0, 0 ,6560
06/22/2018 00:30, 65, 62, 17 ,6, 11, W, None, None, 0, 0 ,6560
06/22/2018 00:28, 65, 61, 17 ,7, 11, W, None, None, 0, 0 ,6560
06/22/2018 00:18, 65, 61, 17 ,7, 9, W, None, None, 0, 0 ,6560
06/22/2018 00:08, 66, 59, 17 ,5, 7, SW, None, None, 0, 0 ,6560
06/22/2018 00:00, 66, 59, 17 ,4, 7, SW, None, None, 0, 0 ,6560
06/21/2018 23:58, 66, 58, 17 ,4, 6, SW, None, None, 0, 0 ,6560
06/21/2018 23:48, 66, 57, 17 ,3, 4, SW, None, None, 0, 0 ,6560
06/21/2018 23:38, 67, 59, 17 ,4, 6, SW, None, None, 0, 0 ,6560
06/21/2018 23:30, 66, 60, 17 ,2, 9, NE, None, None, 0, 0 ,6560
06/21/2018 23:28, 66, 62, 17 ,2, 9, NE, None, None, 0, 0 ,6560
06/21/2018 23:18, 65, 70, 17 ,1, 5, NE, None, None, 0, 0 ,6560
06/21/2018 23:08, 65, 71, 17 ,4, 6, NE, None, None, 0, 0 ,6560
06/21/2018 23:00, 66, 71, 17 ,3, 4, E, None, None, 0, 0 ,6560
06/21/2018 22:58, 67, 62, 17 ,3, 4, SE, None, None, 0, 0 ,6560
06/21/2018 22:47, 67, 60, 17 ,1, 5, SW, None, None, 0, 0 ,6560
06/21/2018 22:37, 67, 57, 17 ,2, 4, W, None, None, 0, 0 ,6560
06/21/2018 22:30, 67, 58, 17 ,2, 5, SW, None, None, 0, 0 ,6560
06/21/2018 22:27, 67, 58, 17 ,2, 4, SW, None, None, 0, 0 ,6560
06/21/2018 22:17, 67, 57, 17 ,1, 6, S, None, None, 0, 0 ,6560
06/21/2018 22:07, 68, 57, 17 ,6, 9, S, None, None, 0, 0 ,6560
06/21/2018 22:00, 68, 59, 17 ,6, 12, SW, None, None, 0, 0 ,6560
06/21/2018 21:57, 68, 58, 17 ,7, 12, SW, None, None, 0, 0 ,6560
06/21/2018 21:47, 69, 54, 17 ,5, 11, S, None, None, 0, 0 ,6560
06/21/2018 21:37, 69, 53, 17 ,7, 13, SW, None, None, 0, 0 ,6560
06/21/2018 21:30, 70, 55, 17 ,8, 21, SW, None, None, 0, 0 ,6560
06/21/2018 21:27, 70, 47, 17 ,12, 21, SW, None, None, 0, 0 ,6560
06/21/2018 21:17, 69, 51, 17 ,6, 11, S, None, None, 0, 0 ,6560
06/21/2018 21:07, 69, 55, 17 ,6, 7, E, None, None, 0, 0 ,6560
06/21/2018 21:00, 69, 54, 17 ,1, 9, SW, None, None, 0, 0 ,6560
06/21/2018 20:57, 69, 52, 17 ,3, 9, N, None, None, 0, 0 ,397
06/21/2018 20:47, 70, 53, 17 ,7, 10, SW, Other, Other, 0, 0 ,
06/21/2018 20:37, 71, 57, 17 ,9, 12, SW, Other, Other, 0, 0 ,
06/21/2018 20:30, 71, 55, 17 ,8, 11, SW, None, None, 0, 0 ,144
06/21/2018 20:27, 71, 53, 17 ,9, 13, SW, None, None, 0, 0 ,282
06/21/2018 20:17, 72, 58, 17 ,9, 12, W, None, None, 0, 0 ,6560
06/21/2018 20:07, 73, 59, 17 ,10, 17, SW, None, None, 0, 0 ,230
06/21/2018 20:00, 73, 56, 17 ,14, 19, W, Other, Other, 0, 0 ,125
06/21/2018 19:57, 73, 51, 17 ,14, 19, SW, Other, Other, 0, 0 ,
06/21/2018 19:47, 73, 56, 17 ,12, 17, SW, Other, Other, 0, 0 ,
06/21/2018 19:37, 72, 55, 17 ,13, 16, SW, None, None, 0, 0 ,351
06/21/2018 19:30, 71, 58, 17 ,14, 17, SW, None, None, 0, 0 ,6560
06/21/2018 19:27, 71, 59, 17 ,12, 18, SW, None, None, 0, 0 ,6560
06/21/2018 19:17, 71, 59, 17 ,17, 22, SW, None, None, 0, 0 ,6560
06/21/2018 19:07, 72, 55, 17 ,18, 24, SW, None, None, 0, 0 ,6560
06/21/2018 19:00, 72, 57, 17 ,20, 24, SW, None, None, 0, 0 ,6560
06/21/2018 18:56, 73, 57, 17 ,17, 22, SW, None, None, 0, 0 ,6560
06/21/2018 18:46, 74, 54, 17 ,16, 23, SW, None, None, 0, 0 ,6560
06/21/2018 18:36, 77, 49, 17 ,12, 19, SW, None, None, 0, 0 ,6560
06/21/2018 18:30, 77, 48, 17 ,10, 11, SW, None, None, 0, 0 ,6560
06/21/2018 18:26, 78, 47, 17 ,9, 11, SW, None, None, 0, 0 ,6560
06/21/2018 18:16, 78, 41, 17 ,7, 10, SW, None, None, 0, 0 ,6560
06/21/2018 18:06, 78, 40, 17 ,6, 7, SW, None, None, 0, 0 ,6560
06/21/2018 18:00, , ,   , , , -, Other, Other, ,   ,
06/21/2018 17:56, 78, 38, 17 ,6, 7, SW, None, None, 0, 0 ,6560
06/21/2018 17:46, 80, 35, 17 ,0, 0, SW, None, None, 0, 0 ,6560
06/21/2018 17:36, 80, 33, 17 ,2, 3, SW, None, None, 0, 0 ,6560
06/21/2018 17:30, 80, 35, 17 ,2, 3, SW, None, None, 0, 0 ,6560
06/21/2018 17:26, 79, 36, 17 ,1, 3, N, None, None, 0, 0 ,6560
06/21/2018 17:16, 79, 34, 17 ,1, 3, N, None, None, 0, 0 ,6560
06/21/2018 17:06, 78, 36, 17 ,3, 4, NE, None, None, 0, 0 ,6560
06/21/2018 17:00, 78, 36, 17 ,3, 5, NE, None, None, 0, 0 ,6560
06/21/2018 16:56, 78, 37, 17 ,4, 6, E, None, None, 0, 0 ,6560
06/21/2018 16:46, 79, 37, 17 ,4, 5, E, None, None, 0, 0 ,6560
06/21/2018 16:36, 79, 38, 17 ,2, 2, E, None, None, 0, 0 ,6560
06/21/2018 16:30, 79, 35, 17 ,0, 2, SE, None, None, 0, 0 ,6560
06/21/2018 16:26, 79, 36, 17 ,0, 2, SW, None, None, 0, 0 ,6560
06/21/2018 16:16, 80, 32, 17 ,0, 2, S, None, None, 0, 0 ,6560
06/21/2018 16:06, 80, 33, 17 ,1, 3, E, None, None, 0, 0 ,6560
06/21/2018 16:00, 79, 31, 17 ,1, 2, NE, None, None, 0, 0 ,6560
06/21/2018 15:56, 79, 33, 17 ,1, 4, E, None, None, 0, 0 ,6560
06/21/2018 15:46, 78, 36, 17 ,3, 6, NE, None, None, 0, 0 ,6560
06/21/2018 15:35, 78, 37, 17 ,2, 4, E, None, None, 0, 0 ,6560
06/21/2018 15:30, 78, 38, 17 ,4, 6, NE, None, None, 0, 0 ,6560
06/21/2018 15:25, 79, 38, 17 ,4, 7, NE, None, None, 0, 0 ,6560
06/21/2018 15:15, 80, 33, 17 ,5, 7, NE, None, None, 0, 0 ,6560
06/21/2018 15:05, 79, 36, 17 ,2, 6, E, None, None, 0, 0 ,6560
06/21/2018 15:00, 80, 31, 17 ,1, 6, NE, None, None, 0, 0 ,6560
06/21/2018 14:55, 79, 34, 17 ,1, 7, E, None, None, 0, 0 ,6560
06/21/2018 14:45, 78, 39, 17 ,4, 8, SE, None, None, 0, 0 ,6560
06/21/2018 14:35, 78, 34, 17 ,4, 9, E, None, None, 0, 0 ,6560
06/21/2018 14:30, 77, 34, 17 ,6, 9, SE, None, None, 0, 0 ,6560
06/21/2018 14:25, 77, 37, 17 ,3, 8, SE, None, None, 0, 0 ,6560
06/21/2018 14:15, 77, 38, 17 ,4, 12, SE, None, None, 0, 0 ,6560
06/21/2018 14:05, 78, 42, 17 ,9, 11, E, None, None, 0, 0 ,6560
06/21/2018 14:00, 78, 44, 17 ,6, 14, E, None, None, 0, 0 ,6560
06/21/2018 13:55, 78, 41, 17 ,9, 14, E, None, None, 0, 0 ,6560
06/21/2018 13:45, 78, 42, 17 ,6, 9, E, None, None, 0, 0 ,6560
06/21/2018 13:35, 75, 40, 17 ,7, 14, SE, None, None, 0, 0 ,6560
06/21/2018 13:30, 76, 49, 17 ,10, 14, E, None, None, 0, 0 ,6560
06/21/2018 13:25, 77, 41, 17 ,4, 9, E, None, None, 0, 0 ,6560
06/21/2018 13:15, 78, 45, 17 ,4, 8, E, None, None, 0, 0 ,6560
06/21/2018 13:05, 76, 41, 17 ,3, 9, E, None, None, 0, 0 ,6560
06/21/2018 13:00, , ,   ,7, 9, SE, None, None, 0, 0 ,6560
06/21/2018 12:55, , ,   ,6, 9, E, None, None, 0, 0 ,6560
06/21/2018 12:45, , ,   ,6, 10, E, None, None, 0, 0 ,6560
06/21/2018 12:35, , ,   ,7, 9, SE, None, None, 0, 0 ,6560
06/21/2018 12:30, , ,   ,4, 10, SE, None, None, 0, 0 ,6560
06/21/2018 12:24, , ,   ,8, 10, SE, None, None, 0, 0 ,6560
06/21/2018 12:14, , ,   ,5, 8, E, None, None, 0, 0 ,6560
06/21/2018 12:04, , ,   ,6, 8, E, None, None, 0, 0 ,6560
06/21/2018 12:00, , ,   ,6, 8, E, None, None, 0, 0 ,6560
06/21/2018 11:54, , ,   ,6, 9, SE, None, None, 0, 0 ,6560
06/21/2018 11:44, , ,   ,5, 9, SE, None, None, 0, 0 ,6560
06/21/2018 11:34, , ,   ,7, 11, SE, None, None, 0, 0 ,6560
06/21/2018 11:30, , ,   ,9, 11, E, None, None, 0, 0 ,6560
06/21/2018 11:24, , ,   ,8, 12, SE, None, None, 0, 0 ,6560
06/21/2018 11:14, , ,   ,7, 11, E, None, None, 0, 0 ,6560
06/21/2018 11:04, , ,   ,9, 12, SE, None, None, 0, 0 ,6560
06/21/2018 11:00, , ,   ,9, 12, SE, None, None, 0, 0 ,6560
06/21/2018 10:54, , ,   ,7, 9, SE, None, None, 0, 0 ,6560
06/21/2018 10:44, , ,   ,7, 10, E, None, None, 0, 0 ,6560
06/21/2018 10:34, , ,   ,9, 12, E, None, None, 0, 0 ,6560
06/21/2018 10:30, , ,   ,8, 12, E, None, None, 0, 0 ,6560
06/21/2018 10:24, , ,   ,7, 11, N, None, None, 0, 0 ,6560
06/21/2018 10:14, , ,   ,7, 9, SE, None, None, 0, 0 ,6560
06/21/2018 10:04, , ,   ,6, 9, E, None, None, 0, 0 ,6560
06/21/2018 10:00, , ,   ,6, 8, E, None, None, 0, 0 ,6560
06/21/2018 09:54, , ,   ,6, 9, N, None, None, 0, 0 ,6560
06/21/2018 09:44, , ,   ,7, 10, N, None, None, 0, 0 ,6560
06/21/2018 09:34, , ,   ,7, 10, NE, None, None, 0, 0 ,6560
06/21/2018 09:30, , ,   ,8, 10, NE, None, None, 0, 0 ,6560
06/21/2018 09:24, , ,   ,8, 10, N, None, None, 0, 0 ,6560
06/21/2018 09:14, , ,   ,7, 9, SE, None, None, 0, 0 ,6560
06/21/2018 09:03, , ,   ,7, 11, SE, None, None, 0, 0 ,6560
06/21/2018 09:00, , ,   ,7, 11, E, None, None, 0, 0 ,6560
06/21/2018 08:53, , ,   ,9, 12, E, None, None, 0, 0 ,6560
06/21/2018 08:43, , ,   ,9, 12, SE, None, None, 0, 0 ,6560
06/21/2018 08:33, , ,   ,9, 11, SE, None, None, 0, 0 ,6560
06/21/2018 08:30, , ,   ,9, 11, SE, None, None, 0, 0 ,6560
06/21/2018 08:23, , ,   ,9, 11, SE, None, None, 0, 0 ,6560
06/21/2018 08:13, , ,   ,9, 12, SE, None, None, 0, 0 ,6560
06/21/2018 08:03, , ,   ,9, 12, SE, None, None, 0, 0 ,6560
06/21/2018 08:00, , ,   ,9, 12, SE, None, None, 0, 0 ,6560
06/21/2018 07:53, , ,   ,11, 13, SE, None, None, 0, 0 ,6560
06/21/2018 07:43, , ,   ,11, 13, SE, None, None, 0.01, 0 ,6560
06/21/2018 07:33, , ,   ,12, 14, SE, None, None, 0.01, 0 ,6560
06/21/2018 07:30, , ,   ,12, 14, S, None, None, 0.01, 0 ,6560
06/21/2018 07:23, , ,   ,12, 14, S, None, None, 0.01, 0 ,6560
06/21/2018 07:13, , ,   ,10, 12, SE, None, None, 0.01, 0 ,6560
06/21/2018 07:03, , ,   ,12, 13, SE, None, None, 0.01, 0 ,6560
06/21/2018 07:00, , ,   ,11, 12, S, None, None, 0.01, 0 ,6560
06/21/2018 06:53, , ,   ,8, 9, S, None, None, 0.01, 0 ,6560
06/21/2018 06:43, , ,   ,5, 6, S, None, None, 0.01, 0 ,6560
06/21/2018 06:33, , ,   ,4, 7, S, None, None, 0.01, 0 ,6560
06/21/2018 06:30, , ,   ,4, 7, S, None, None, 0.01, 0 ,6560
06/21/2018 06:23, , ,   ,6, 7, SE, None, None, 0.01, 0 ,6560
06/21/2018 06:13, , ,   ,6, 8, S, None, None, 0.01, 0 ,6560
06/21/2018 06:02, , ,   ,7, 9, S, None, None, 0.01, 0 ,6560
06/21/2018 06:00, , ,   ,6, 9, S, None, None, 0.01, 0 ,6560
06/21/2018 05:52, , ,   ,7, 10, S, None, None, 0.01, 0 ,6560
06/21/2018 05:42, , ,   ,7, 9, S, None, None, 0.01, 0 ,6560
06/21/2018 05:32, , ,   ,7, 9, S, None, None, 0.01, 0 ,6560
06/21/2018 05:30, , ,   ,7, 8, S, None, None, 0.01, 0 ,6560
06/21/2018 05:22, , ,   ,7, 9, S, None, None, 0.01, 0 ,6560
06/21/2018 05:12, , ,   ,7, 9, S, None, None, 0.01, 0 ,6560
06/21/2018 05:02, , ,   ,7, 10, S, None, None, 0.01, 0 ,6560
06/21/2018 05:00, , ,   ,7, 10, S, None, None, 0.01, 0 ,6560
06/21/2018 04:52, , ,   ,7, 9, S, None, None, 0.01, 0 ,6560
06/21/2018 04:42, , ,   ,7, 9, S, None, None, 0.01, 0 ,6560
06/21/2018 04:32, , ,   ,7, 9, S, None, None, 0.01, 0 ,6560
06/21/2018 04:30, , ,   ,7, 9, S, None, None, 0.01, 0 ,6560
06/21/2018 04:22, , ,   ,6, 8, S, None, None, 0.01, 0 ,6560
06/21/2018 04:12, , ,   ,6, 7, S, None, None, 0.01, 0 ,6560
06/21/2018 04:02, , ,   ,6, 8, S, None, None, 0.01, 0 ,6560
06/21/2018 04:00, , ,   ,7, 8, S, None, None, 0.01, 0 ,6560
06/21/2018 03:52, , ,   ,7, 9, S, None, None, 0.01, 0 ,6560
06/21/2018 03:42, , ,   ,7, 9, SE, None, None, 0.01, 0 ,6560
06/21/2018 03:32, , ,   ,7, 8, S, None, None, 0.01, 0 ,6560
06/21/2018 03:30, , ,   ,7, 8, S, None, None, 0.01, 0 ,6560
06/21/2018 03:22, , ,   ,7, 8, S, None, None, 0.01, 0 ,6560
06/21/2018 03:12, , ,   ,6, 7, SE, None, None, 0.01, 0 ,6560
Change End Date:

Copyright © 1998-2015 Vaisala, Inc.
All Rights Reserved
Send comments about the data to:
SCAN Web ® is a registered trademark of Vaisala, Inc.
SCAN Web Version 6.0